createdAt,value
2016-12-31T00:00:54.087Z,81.49
2016-12-31T00:02:02.791Z,81.78
2016-12-31T00:03:11.494Z,81.4
2016-12-31T00:04:20.193Z,81.78
2016-12-31T00:05:28.890Z,81.68
2016-12-31T00:06:37.596Z,81.84
2016-12-31T00:07:46.298Z,82.16
2016-12-31T00:08:55.004Z,82.64
2016-12-31T00:10:03.705Z,82.35
2016-12-31T00:11:12.406Z,82.4
2016-12-31T00:12:21.106Z,83.07
2016-12-31T00:13:29.814Z,83.16
2016-12-31T00:14:38.519Z,83.36
2016-12-31T00:15:47.221Z,83.36
2016-12-31T00:16:55.922Z,83.36
2016-12-31T00:18:04.623Z,83.36
2016-12-31T00:19:13.330Z,83.36
2016-12-31T00:20:22.030Z,84.21
2016-12-31T00:21:30.726Z,84.3
2016-12-31T00:22:39.428Z,84.21
2016-12-31T00:23:48.129Z,84.21
2016-12-31T00:24:56.830Z,84.01
2016-12-31T00:26:05.534Z,83.92
2016-12-31T00:27:14.236Z,84.4
2016-12-31T00:28:22.934Z,84.3
2016-12-31T00:29:31.630Z,84.11
2016-12-31T00:30:40.328Z,84.3
2016-12-31T00:31:49.030Z,84.11
2016-12-31T00:32:57.734Z,84.78
2016-12-31T00:34:06.439Z,84.59
2016-12-31T00:35:15.138Z,84.49
2016-12-31T00:36:23.838Z,84.59
2016-12-31T00:37:32.538Z,85.06
2016-12-31T00:38:41.235Z,84.97
2016-12-31T00:39:49.935Z,84.11
2016-12-31T00:40:58.660Z,84.4
2016-12-31T00:42:07.362Z,84.49
2016-12-31T00:43:16.062Z,84.3
2016-12-31T00:44:24.766Z,84.49
2016-12-31T00:45:33.469Z,84.4
2016-12-31T00:46:42.170Z,84.3
2016-12-31T00:47:50.874Z,84.3
2016-12-31T00:48:59.576Z,84.59
2016-12-31T00:50:08.280Z,84.3
2016-12-31T00:51:16.979Z,84.49
2016-12-31T00:52:25.676Z,84.49
2016-12-31T00:53:34.402Z,84.78
2016-12-31T00:54:43.100Z,84.11
2016-12-31T00:55:51.801Z,83.64
2016-12-31T00:57:00.503Z,84.21
2016-12-31T00:58:09.209Z,84.01
2016-12-31T00:59:17.907Z,84.01
2016-12-31T01:00:26.606Z,84.01
2016-12-31T01:01:35.319Z,83.97
2016-12-31T01:02:44.017Z,83.36
2016-12-31T01:03:53.068Z,83.39
2016-12-31T01:05:01.771Z,83.49
2016-12-31T01:06:10.498Z,83.36
2016-12-31T01:07:19.196Z,83.54
2016-12-31T01:08:27.895Z,83.49
2016-12-31T01:09:36.594Z,83.49
2016-12-31T01:10:45.327Z,83.3
2016-12-31T01:11:54.028Z,83.39
2016-12-31T01:13:02.748Z,83.49
2016-12-31T01:14:11.447Z,83.39
2016-12-31T01:15:20.150Z,83.01
2016-12-31T01:16:28.849Z,82.92
2016-12-31T01:17:37.548Z,82.82
2016-12-31T01:18:46.253Z,82.54
2016-12-31T01:19:54.949Z,82.82
2016-12-31T01:21:03.652Z,82.26
2016-12-31T01:22:12.355Z,82.54
2016-12-31T01:23:21.099Z,82.35
2016-12-31T01:24:29.799Z,82.35
2016-12-31T01:25:38.500Z,82.45
2016-12-31T01:26:47.595Z,82.54
2016-12-31T01:27:56.296Z,82.45
2016-12-31T01:29:04.996Z,82.26
2016-12-31T01:30:13.701Z,82.45
2016-12-31T01:31:22.402Z,82.45
2016-12-31T01:32:31.109Z,82.26
2016-12-31T01:33:39.809Z,82.16
2016-12-31T01:34:48.513Z,81.59
2016-12-31T01:35:57.210Z,81.87
2016-12-31T01:37:05.917Z,81.49
2016-12-31T01:38:14.624Z,81.97
2016-12-31T01:39:23.328Z,81.68
2016-12-31T01:40:32.053Z,81.49
2016-12-31T01:41:40.758Z,81.49
2016-12-31T01:42:49.455Z,81.49
2016-12-31T01:43:58.238Z,81.3
2016-12-31T01:45:06.936Z,81.21
2016-12-31T01:46:15.664Z,80.74
2016-12-31T01:47:24.368Z,80.45
2016-12-31T01:48:33.064Z,80.64
2016-12-31T01:49:41.768Z,80.35
2016-12-31T01:50:50.470Z,80.45
2016-12-31T01:51:59.168Z,80.64
2016-12-31T01:53:07.869Z,80.58
2016-12-31T01:54:16.570Z,80.16
2016-12-31T01:55:25.322Z,80.16
2016-12-31T01:56:34.025Z,80.3
2016-12-31T01:57:42.722Z,79.97
2016-12-31T01:58:51.423Z,79.79
2016-12-31T02:00:00.126Z,80.35
2016-12-31T02:01:08.831Z,80.58
2016-12-31T02:02:17.530Z,80.11
2016-12-31T02:03:26.232Z,80.4
2016-12-31T02:04:34.932Z,80.49
2016-12-31T02:05:43.634Z,79.83
2016-12-31T02:06:52.341Z,80.3
2016-12-31T02:08:01.049Z,80.02
2016-12-31T02:09:09.747Z,80.49
2016-12-31T02:10:18.449Z,80.11
2016-12-31T02:11:27.151Z,80.21
2016-12-31T02:12:35.883Z,80.21
2016-12-31T02:13:44.579Z,79.73
2016-12-31T02:14:53.277Z,79.73
2016-12-31T02:16:02.005Z,79.54
2016-12-31T02:17:10.706Z,79.44
2016-12-31T02:18:19.405Z,80.02
2016-12-31T02:19:28.109Z,80.02
2016-12-31T02:20:36.811Z,79.63
2016-12-31T02:21:45.511Z,80.21
2016-12-31T02:22:54.209Z,80.3
2016-12-31T02:24:02.941Z,80.3
2016-12-31T02:25:11.647Z,79.83
2016-12-31T02:26:20.350Z,80.58
2016-12-31T02:27:29.047Z,80.87
2016-12-31T02:28:37.753Z,80.58
2016-12-31T02:29:46.455Z,80.4
2016-12-31T02:30:55.157Z,80.68
2016-12-31T02:32:03.864Z,80.4
2016-12-31T02:33:12.566Z,80.68
2016-12-31T02:34:21.265Z,80.4
2016-12-31T02:35:29.965Z,80.77
2016-12-31T02:36:38.665Z,80.58
2016-12-31T02:37:47.363Z,80.77
2016-12-31T02:38:56.069Z,80.58
2016-12-31T02:40:04.776Z,80.87
2016-12-31T02:41:13.483Z,80.77
2016-12-31T02:42:22.181Z,80.96
2016-12-31T02:43:30.908Z,80.35
2016-12-31T02:44:39.607Z,80.35
2016-12-31T02:45:48.309Z,80.49
2016-12-31T02:46:57.012Z,80.64
2016-12-31T02:48:05.713Z,80.64
2016-12-31T02:49:14.411Z,80.74
2016-12-31T02:50:23.111Z,81.12
2016-12-31T02:51:31.809Z,81.16
2016-12-31T02:52:40.514Z,81.02
2016-12-31T02:53:49.219Z,81.3
2016-12-31T02:54:57.916Z,81.06
2016-12-31T02:56:06.615Z,81.21
2016-12-31T02:57:15.320Z,81.12
2016-12-31T02:58:24.021Z,81.3
2016-12-31T02:59:32.719Z,81.49
2016-12-31T03:00:41.427Z,81.59
2016-12-31T03:01:50.160Z,81.73
2016-12-31T03:02:58.864Z,81.59
2016-12-31T03:04:07.665Z,81.49
2016-12-31T03:05:16.363Z,81.06
2016-12-31T03:06:25.091Z,81.59
2016-12-31T03:07:33.794Z,81.4
2016-12-31T03:08:42.497Z,81.4
2016-12-31T03:09:51.198Z,81.97
2016-12-31T03:10:59.900Z,81.4
2016-12-31T03:12:08.605Z,81.68
2016-12-31T03:13:17.303Z,81.68
2016-12-31T03:14:26.000Z,81.97
2016-12-31T03:15:34.700Z,81.59
2016-12-31T03:16:43.400Z,81.78
2016-12-31T03:17:52.103Z,81.78
2016-12-31T03:19:00.801Z,82.07
2016-12-31T03:20:09.507Z,82.07
2016-12-31T03:21:18.204Z,81.78
2016-12-31T03:22:26.909Z,81.68
2016-12-31T03:23:35.609Z,81.87
2016-12-31T03:24:44.313Z,81.87
2016-12-31T03:25:53.008Z,81.59
2016-12-31T03:27:01.708Z,81.68
2016-12-31T03:28:10.412Z,81.21
2016-12-31T03:29:19.114Z,81.3
2016-12-31T03:30:27.820Z,81.3
2016-12-31T03:31:36.523Z,80.93
2016-12-31T03:32:45.224Z,80.93
2016-12-31T03:33:53.925Z,80.93
2016-12-31T03:35:02.626Z,80.83
2016-12-31T03:36:11.329Z,81.36
2016-12-31T03:37:20.030Z,81.65
2016-12-31T03:38:28.728Z,81.84
2016-12-31T03:39:37.431Z,81.74
2016-12-31T03:40:46.132Z,82.21
2016-12-31T03:41:54.832Z,82.31
2016-12-31T03:43:03.564Z,82.12
2016-12-31T03:44:12.264Z,82.21
2016-12-31T03:45:20.966Z,82.31
2016-12-31T03:46:29.670Z,82.31
2016-12-31T03:47:38.378Z,82.59
2016-12-31T03:48:47.079Z,82.69
2016-12-31T03:49:55.782Z,82.69
2016-12-31T03:51:04.488Z,82.84
2016-12-31T03:52:13.193Z,83.5
2016-12-31T03:53:21.901Z,83.31
2016-12-31T03:54:30.598Z,83.5
2016-12-31T03:55:39.301Z,84.17
2016-12-31T03:56:48.003Z,83.97
2016-12-31T03:57:56.705Z,84.07
2016-12-31T03:59:05.408Z,84.17
2016-12-31T04:00:14.120Z,83.78
2016-12-31T04:01:22.819Z,84.07
2016-12-31T04:02:31.517Z,84.45
2016-12-31T04:03:40.218Z,83.97
2016-12-31T04:04:48.947Z,84.45
2016-12-31T04:05:57.646Z,84.26
2016-12-31T04:07:06.346Z,85.11
2016-12-31T04:08:15.048Z,84.83
2016-12-31T04:09:23.748Z,84.55
2016-12-31T04:10:32.445Z,84.83
2016-12-31T04:11:41.144Z,84.64
2016-12-31T04:12:49.848Z,84.92
2016-12-31T04:13:58.548Z,85.45
2016-12-31T04:15:07.248Z,85.68
2016-12-31T04:16:15.948Z,85.59
2016-12-31T04:17:24.645Z,85.55
2016-12-31T04:18:33.346Z,85.74
2016-12-31T04:19:42.050Z,85.45
2016-12-31T04:20:50.755Z,85.64
2016-12-31T04:21:59.483Z,85.64
2016-12-31T04:23:08.185Z,86.3
2016-12-31T04:24:16.886Z,86.21
2016-12-31T04:25:25.589Z,86.11
2016-12-31T04:26:34.286Z,86.3
2016-12-31T04:27:42.986Z,87.25
2016-12-31T04:28:51.687Z,86.68
2016-12-31T04:30:00.384Z,86.3
2016-12-31T04:31:09.094Z,86.59
2016-12-31T04:32:17.792Z,86.4
2016-12-31T04:33:26.490Z,86.11
2016-12-31T04:34:35.193Z,86.02
2016-12-31T04:35:43.896Z,86.21
2016-12-31T04:36:52.611Z,85.93
2016-12-31T04:38:01.308Z,86.11
2016-12-31T04:39:10.007Z,86.11
2016-12-31T04:40:18.710Z,86.02
2016-12-31T04:41:27.415Z,86.02
2016-12-31T04:42:36.114Z,85.45
2016-12-31T04:43:44.814Z,85.45
2016-12-31T04:44:53.518Z,85.55
2016-12-31T04:46:02.225Z,86.35
2016-12-31T04:47:10.929Z,88.24
2016-12-31T04:48:19.654Z,89.29
2016-12-31T04:49:28.351Z,88.43
2016-12-31T04:50:37.051Z,87.87
2016-12-31T04:51:45.760Z,87.49
2016-12-31T04:52:54.461Z,87.58
2016-12-31T04:54:03.165Z,87.68
2016-12-31T04:55:11.868Z,87.49
2016-12-31T04:56:20.569Z,87.87
2016-12-31T04:57:29.269Z,87.91
2016-12-31T04:58:37.967Z,87.53
2016-12-31T04:59:46.666Z,87.34
2016-12-31T05:00:55.366Z,87.34
2016-12-31T05:02:04.069Z,87.53
2016-12-31T05:03:12.770Z,86.49
2016-12-31T05:04:21.469Z,86.2
2016-12-31T05:05:30.205Z,85.91
2016-12-31T05:06:38.906Z,85.25
2016-12-31T05:07:47.631Z,84.78
2016-12-31T05:08:56.337Z,84.68
2016-12-31T05:10:05.041Z,84.87
2016-12-31T05:11:13.745Z,84.3
2016-12-31T05:12:22.446Z,84.55
2016-12-31T05:13:31.148Z,85.02
2016-12-31T05:14:39.846Z,84.83
2016-12-31T05:15:48.573Z,84.74
2016-12-31T05:16:57.273Z,84.92
2016-12-31T05:18:05.974Z,85.02
2016-12-31T05:19:14.675Z,85.21
2016-12-31T05:20:23.376Z,84.92
2016-12-31T05:21:32.078Z,85.59
2016-12-31T05:22:40.790Z,85.49
2016-12-31T05:23:49.494Z,85.4
2016-12-31T05:24:58.196Z,85.78
2016-12-31T05:26:06.894Z,86.16
2016-12-31T05:27:15.592Z,86.72
2016-12-31T05:28:24.290Z,86.91
2016-12-31T05:29:32.990Z,86.82
2016-12-31T05:30:41.696Z,86.16
2016-12-31T05:31:50.403Z,85.78
2016-12-31T05:32:59.102Z,86.16
2016-12-31T05:34:07.803Z,86.21
2016-12-31T05:35:16.502Z,87.25
2016-12-31T05:36:25.206Z,87.06
2016-12-31T05:37:33.909Z,87.45
2016-12-31T05:38:42.608Z,87.92
2016-12-31T05:39:51.307Z,87.25
2016-12-31T05:41:00.010Z,87.73
2016-12-31T05:42:08.713Z,88.01
2016-12-31T05:43:17.412Z,87.92
2016-12-31T05:44:26.121Z,87.54
2016-12-31T05:45:34.821Z,86.68
2016-12-31T05:46:43.522Z,86.11
2016-12-31T05:47:52.230Z,84.88
2016-12-31T05:49:00.928Z,83.84
2016-12-31T05:50:09.630Z,83.27
2016-12-31T05:51:18.329Z,82.17
2016-12-31T05:52:27.028Z,82.46
2016-12-31T05:53:35.741Z,82.46
2016-12-31T05:54:44.439Z,82.17
2016-12-31T05:55:53.139Z,82.36
2016-12-31T05:57:01.836Z,82.17
2016-12-31T05:58:10.539Z,81.98
2016-12-31T05:59:19.267Z,81.51
2016-12-31T06:00:27.973Z,80.37
2016-12-31T06:01:36.673Z,80.37
2016-12-31T06:02:45.390Z,80.46
2016-12-31T06:03:54.092Z,79.9
2016-12-31T06:05:02.792Z,79.33
2016-12-31T06:06:11.492Z,79.33
2016-12-31T06:07:20.196Z,79.42
2016-12-31T06:08:28.897Z,80.27
2016-12-31T06:09:37.598Z,80.18
2016-12-31T06:10:46.317Z,80.18
2016-12-31T06:11:55.020Z,79.9
2016-12-31T06:13:03.719Z,80.18
2016-12-31T06:14:12.419Z,80.08
2016-12-31T06:15:21.119Z,80.08
2016-12-31T06:16:29.818Z,80.46
2016-12-31T06:17:38.521Z,80.27
2016-12-31T06:18:47.221Z,80.18
2016-12-31T06:19:55.942Z,79.61
2016-12-31T06:21:04.640Z,80.27
2016-12-31T06:22:13.342Z,80.27
2016-12-31T06:23:22.046Z,79.8
2016-12-31T06:24:30.743Z,80.18
2016-12-31T06:25:39.444Z,80.37
2016-12-31T06:26:48.144Z,80.37
2016-12-31T06:27:56.852Z,80.18
2016-12-31T06:29:05.550Z,80.08
2016-12-31T06:30:14.250Z,80.18
2016-12-31T06:31:22.949Z,79.8
2016-12-31T06:32:31.650Z,79.99
2016-12-31T06:33:40.350Z,80.18
2016-12-31T06:34:49.079Z,80.18
2016-12-31T06:35:57.780Z,80.18
2016-12-31T06:37:06.481Z,80.18
2016-12-31T06:38:15.178Z,80.18
2016-12-31T06:39:23.881Z,80.27
2016-12-31T06:40:32.617Z,80.08
2016-12-31T06:41:41.317Z,79.8
2016-12-31T06:42:50.020Z,80.18
2016-12-31T06:43:58.718Z,80.18
2016-12-31T06:45:07.818Z,80.37
2016-12-31T06:46:16.522Z,80.18
2016-12-31T06:47:25.220Z,81.23
2016-12-31T06:48:33.922Z,81.32
2016-12-31T06:49:42.621Z,82.08
2016-12-31T06:50:51.720Z,82.84
2016-12-31T06:52:00.422Z,83.5
2016-12-31T06:53:09.168Z,84.26
2016-12-31T06:54:17.867Z,84.07
2016-12-31T06:55:26.588Z,84.4
2016-12-31T06:56:35.319Z,85.06
2016-12-31T06:57:44.017Z,84.59
2016-12-31T06:58:52.718Z,84.78
2016-12-31T07:00:01.420Z,85.16
2016-12-31T07:01:10.130Z,84.3
2016-12-31T07:02:18.834Z,84.11
2016-12-31T07:03:27.534Z,84.49
2016-12-31T07:04:36.232Z,84.3
2016-12-31T07:05:44.934Z,84.11
2016-12-31T07:06:53.635Z,84.21
2016-12-31T07:08:02.335Z,84.49
2016-12-31T07:09:11.030Z,84.11
2016-12-31T07:10:19.730Z,84.78
2016-12-31T07:11:28.430Z,84.3
2016-12-31T07:12:37.134Z,84.49
2016-12-31T07:13:45.833Z,84.3
2016-12-31T07:14:54.530Z,84.3
2016-12-31T07:16:03.231Z,84.59
2016-12-31T07:17:11.930Z,84.21
2016-12-31T07:18:20.635Z,83.26
2016-12-31T07:19:29.331Z,83.92
2016-12-31T07:20:38.030Z,84.21
2016-12-31T07:21:46.728Z,84.21
2016-12-31T07:22:55.425Z,83.92
2016-12-31T07:24:04.126Z,83.92
2016-12-31T07:25:12.827Z,83.54
2016-12-31T07:26:21.528Z,83.73
2016-12-31T07:27:30.224Z,83.83
2016-12-31T07:28:38.926Z,84.21
2016-12-31T07:29:47.630Z,83.92
2016-12-31T07:30:56.328Z,84.4
2016-12-31T07:32:05.059Z,84.11
2016-12-31T07:33:13.760Z,84.49
2016-12-31T07:34:22.464Z,84.3
2016-12-31T07:35:31.174Z,84.4
2016-12-31T07:36:39.875Z,84.4
2016-12-31T07:37:48.574Z,84.3
2016-12-31T07:38:57.280Z,83.73
2016-12-31T07:40:05.979Z,84.4
2016-12-31T07:41:14.686Z,83.73
2016-12-31T07:42:23.415Z,84.21
2016-12-31T07:43:32.113Z,83.36
2016-12-31T07:44:40.813Z,83.45
2016-12-31T07:45:49.517Z,83.2
2016-12-31T07:46:58.219Z,82.35
2016-12-31T07:48:06.923Z,82.07
2016-12-31T07:49:15.624Z,82.54
2016-12-31T07:50:24.324Z,82.07
2016-12-31T07:51:33.021Z,81.59
2016-12-31T07:52:41.728Z,81.78
2016-12-31T07:53:50.428Z,81.59
2016-12-31T07:54:59.127Z,79.6
2016-12-31T07:56:07.832Z,80.35
2016-12-31T07:57:16.931Z,81.93
2016-12-31T07:58:25.648Z,84.45
2016-12-31T07:59:34.344Z,87.16
2016-12-31T08:00:43.044Z,87.92
2016-12-31T08:01:51.749Z,88.96
2016-12-31T08:03:00.449Z,89.01
2016-12-31T08:04:09.156Z,90.05
2016-12-31T08:05:17.900Z,91.28
2016-12-31T08:06:26.596Z,91.57
2016-12-31T08:07:35.297Z,91.62
2016-12-31T08:08:43.996Z,92.09
2016-12-31T08:09:52.693Z,93.04
2016-12-31T08:11:01.392Z,92.28
2016-12-31T08:12:10.087Z,91.81
2016-12-31T08:13:18.785Z,91.81
2016-12-31T08:14:27.482Z,91.14
2016-12-31T08:15:36.183Z,91.24
2016-12-31T08:16:44.883Z,91.52
2016-12-31T08:17:53.583Z,91.81
2016-12-31T08:19:02.287Z,91.62
2016-12-31T08:20:11.016Z,91.62
2016-12-31T08:21:19.714Z,92.28
2016-12-31T08:22:28.411Z,92.47
2016-12-31T08:23:37.115Z,92.09
2016-12-31T08:24:45.813Z,92.28
2016-12-31T08:25:54.510Z,91.81
2016-12-31T08:27:03.208Z,91.9
2016-12-31T08:28:11.918Z,92.57
2016-12-31T08:29:20.615Z,92.85
2016-12-31T08:30:29.313Z,93.23
2016-12-31T08:31:38.014Z,93.23
2016-12-31T08:32:46.713Z,93.32
2016-12-31T08:33:55.415Z,93.42
2016-12-31T08:35:04.120Z,92.66
2016-12-31T08:36:12.817Z,91.85
2016-12-31T08:37:21.516Z,90.62
2016-12-31T08:38:30.238Z,90.15
2016-12-31T08:39:38.939Z,90.34
2016-12-31T08:40:47.639Z,90.05
2016-12-31T08:41:56.336Z,90.05
2016-12-31T08:43:05.036Z,89.72
2016-12-31T08:44:13.732Z,90.2
2016-12-31T08:45:22.435Z,90.67
2016-12-31T08:46:31.134Z,90.1
2016-12-31T08:47:39.828Z,90.39
2016-12-31T08:48:48.527Z,90.58
2016-12-31T08:49:57.225Z,90.86
2016-12-31T08:51:05.926Z,90.2
2016-12-31T08:52:14.624Z,90.48
2016-12-31T08:53:23.321Z,90.77
2016-12-31T08:54:32.028Z,90.77
2016-12-31T08:55:40.758Z,90.58
2016-12-31T08:56:49.455Z,90.77
2016-12-31T08:57:58.154Z,90.95
2016-12-31T08:59:06.851Z,90.58
2016-12-31T09:00:15.560Z,92
2016-12-31T09:01:24.263Z,93.13
2016-12-31T09:02:32.960Z,93.51
2016-12-31T09:03:41.655Z,92.99
2016-12-31T09:04:50.381Z,92.61
2016-12-31T09:05:59.079Z,91.57
2016-12-31T09:07:07.777Z,90.72
2016-12-31T09:08:16.475Z,89.81
2016-12-31T09:09:25.172Z,89.53
2016-12-31T09:10:33.870Z,88.68
2016-12-31T09:11:42.567Z,88.48
2016-12-31T09:12:51.268Z,87.35
2016-12-31T09:13:59.981Z,87.49
2016-12-31T09:15:08.676Z,86.91
2016-12-31T09:16:17.372Z,86.63
2016-12-31T09:17:26.074Z,86.35
2016-12-31T09:18:34.770Z,85.87
2016-12-31T09:19:43.471Z,86.01
2016-12-31T09:20:52.169Z,84.87
2016-12-31T09:22:00.869Z,84.4
2016-12-31T09:23:09.571Z,84.21
2016-12-31T09:24:18.269Z,84.01
2016-12-31T09:25:26.969Z,83.26
2016-12-31T09:26:35.667Z,83.16
2016-12-31T09:27:44.397Z,82.88
2016-12-31T09:28:53.152Z,82.88
2016-12-31T09:30:02.249Z,82.31
2016-12-31T09:31:10.953Z,82.21
2016-12-31T09:32:19.658Z,81.97
2016-12-31T09:33:28.360Z,81.68
2016-12-31T09:34:37.061Z,81.68
2016-12-31T09:35:45.770Z,81.49
2016-12-31T09:36:54.473Z,81.3
2016-12-31T09:38:03.184Z,80.83
2016-12-31T09:39:11.881Z,80.83
2016-12-31T09:40:20.590Z,80.64
2016-12-31T09:41:29.290Z,81.12
2016-12-31T09:42:37.991Z,81.4
2016-12-31T09:43:46.690Z,81.12
2016-12-31T09:44:55.387Z,81.12
2016-12-31T09:46:04.084Z,80.93
2016-12-31T09:47:12.813Z,81.26
2016-12-31T09:48:21.513Z,80.88
2016-12-31T09:49:30.212Z,81.26
2016-12-31T09:50:38.908Z,81.26
2016-12-31T09:51:47.611Z,80.41
2016-12-31T09:52:56.311Z,80.88
2016-12-31T09:54:05.024Z,80.32
2016-12-31T09:55:13.722Z,80.6
2016-12-31T09:56:22.424Z,80.35
2016-12-31T09:57:31.125Z,80.69
2016-12-31T09:58:39.833Z,81.12
2016-12-31T09:59:48.532Z,81.4
2016-12-31T10:00:57.229Z,81.17
2016-12-31T10:02:05.932Z,80.98
2016-12-31T10:03:14.629Z,81.02
2016-12-31T10:04:23.339Z,81.07
2016-12-31T10:05:32.038Z,80.83
2016-12-31T10:06:40.740Z,80.88
2016-12-31T10:07:49.468Z,81.12
2016-12-31T10:08:58.167Z,81.02
2016-12-31T10:10:06.870Z,81.07
2016-12-31T10:11:15.569Z,81.3
2016-12-31T10:12:24.267Z,81.4
2016-12-31T10:13:33.014Z,81.59
2016-12-31T10:14:41.711Z,81.68
2016-12-31T10:15:50.410Z,81.59
2016-12-31T10:16:59.111Z,81.21
2016-12-31T10:18:07.808Z,81.3
2016-12-31T10:19:16.509Z,80.93
2016-12-31T10:20:25.213Z,81.02
2016-12-31T10:21:33.912Z,81.12
2016-12-31T10:22:42.613Z,80.93
2016-12-31T10:23:51.310Z,80.35
2016-12-31T10:25:00.011Z,80.64
2016-12-31T10:26:08.711Z,80.45
2016-12-31T10:27:17.412Z,80.26
2016-12-31T10:28:26.109Z,80.26
2016-12-31T10:29:34.810Z,80.07
2016-12-31T10:30:43.518Z,79.79
2016-12-31T10:31:52.237Z,79.88
2016-12-31T10:33:00.937Z,79.97
2016-12-31T10:34:09.640Z,80.16
2016-12-31T10:35:18.346Z,80.16
2016-12-31T10:36:27.055Z,80.07
2016-12-31T10:37:35.752Z,80.35
2016-12-31T10:38:44.483Z,80.32
2016-12-31T10:39:53.180Z,80.45
2016-12-31T10:41:01.880Z,81.4
2016-12-31T10:42:10.584Z,80.98
2016-12-31T10:43:19.286Z,81.36
2016-12-31T10:44:27.983Z,81.26
2016-12-31T10:45:36.685Z,81.17
2016-12-31T10:46:45.384Z,80.45
2016-12-31T10:47:54.088Z,80.83
2016-12-31T10:49:02.787Z,80.07
2016-12-31T10:50:11.491Z,80.16
2016-12-31T10:51:20.189Z,80.45
2016-12-31T10:52:28.890Z,79.12
2016-12-31T10:53:37.589Z,79.94
2016-12-31T10:54:46.291Z,81.07
2016-12-31T10:55:54.993Z,81.79
2016-12-31T10:57:03.699Z,82.93
2016-12-31T10:58:12.402Z,83.22
2016-12-31T10:59:21.101Z,83.5
2016-12-31T11:00:29.809Z,83.36
2016-12-31T11:01:38.509Z,83.17
2016-12-31T11:02:47.210Z,83.27
2016-12-31T11:03:55.911Z,83.36
2016-12-31T11:05:05.007Z,83.65
2016-12-31T11:06:13.708Z,83.17
2016-12-31T11:07:22.411Z,83.94
2016-12-31T11:08:31.111Z,84.69
2016-12-31T11:09:39.811Z,84.69
2016-12-31T11:10:48.515Z,84.69
2016-12-31T11:11:57.216Z,84.98
2016-12-31T11:13:05.915Z,84.45
2016-12-31T11:14:14.619Z,84.17
2016-12-31T11:15:23.318Z,83.88
2016-12-31T11:16:32.016Z,83.4
2016-12-31T11:17:40.721Z,83.31
2016-12-31T11:18:49.424Z,83.4
2016-12-31T11:19:58.130Z,83.5
2016-12-31T11:21:06.829Z,82.93
2016-12-31T11:22:15.530Z,82.65
2016-12-31T11:23:24.234Z,82.97
2016-12-31T11:24:32.940Z,82.4
2016-12-31T11:25:41.640Z,82.31
2016-12-31T11:26:50.343Z,82.12
2016-12-31T11:27:59.040Z,82.31
2016-12-31T11:29:07.753Z,81.55
2016-12-31T11:30:16.454Z,81.55
2016-12-31T11:31:25.154Z,81.93
2016-12-31T11:32:33.853Z,81.65
2016-12-31T11:33:42.550Z,81.45
2016-12-31T11:34:51.248Z,81.26
2016-12-31T11:35:59.949Z,81.17
2016-12-31T11:37:08.649Z,81.07
2016-12-31T11:38:17.348Z,80.88
2016-12-31T11:39:26.070Z,80.51
2016-12-31T11:40:34.772Z,80.51
2016-12-31T11:41:43.475Z,80.51
2016-12-31T11:42:52.175Z,80.88
2016-12-31T11:44:00.877Z,80.32
2016-12-31T11:45:09.677Z,80.69
2016-12-31T11:46:18.378Z,80.6
2016-12-31T11:47:27.085Z,80.41
2016-12-31T11:48:35.787Z,80.51
2016-12-31T11:49:44.490Z,80.69
2016-12-31T11:50:53.190Z,80.88
2016-12-31T11:52:02.294Z,80.32
2016-12-31T11:53:10.993Z,80.13
2016-12-31T11:54:19.694Z,80.51
2016-12-31T11:55:28.389Z,80.22
2016-12-31T11:56:37.146Z,80.88
2016-12-31T11:57:45.845Z,80.22
2016-12-31T11:58:54.552Z,80.51
2016-12-31T12:00:03.254Z,80.51
2016-12-31T12:01:11.955Z,80.51
2016-12-31T12:02:20.651Z,80.51
2016-12-31T12:03:29.347Z,80.41
2016-12-31T12:04:38.048Z,80.69
2016-12-31T12:05:46.752Z,80.51
2016-12-31T12:06:55.448Z,80.41
2016-12-31T12:08:04.149Z,80.6
2016-12-31T12:09:12.853Z,80.79
2016-12-31T12:10:21.561Z,80.69
2016-12-31T12:11:30.257Z,80.98
2016-12-31T12:12:38.957Z,80.98
2016-12-31T12:13:47.671Z,81.07
2016-12-31T12:14:56.369Z,80.79
2016-12-31T12:16:05.072Z,81.07
2016-12-31T12:17:13.776Z,80.88
2016-12-31T12:18:22.473Z,80.88
2016-12-31T12:19:31.173Z,80.69
2016-12-31T12:20:39.871Z,80.22
2016-12-31T12:21:48.571Z,80.51
2016-12-31T12:22:57.273Z,80.69
2016-12-31T12:24:05.974Z,80.51
2016-12-31T12:25:14.672Z,80.51
2016-12-31T12:26:23.371Z,80.41
2016-12-31T12:27:32.072Z,80.6
2016-12-31T12:28:40.779Z,80.51
2016-12-31T12:29:49.479Z,80.51
2016-12-31T12:30:58.181Z,80.6
2016-12-31T12:32:06.882Z,80.32
2016-12-31T12:33:15.579Z,80.32
2016-12-31T12:34:24.279Z,80.22
2016-12-31T12:35:32.979Z,80.13
2016-12-31T12:36:41.679Z,79.84
2016-12-31T12:37:50.380Z,80.13
2016-12-31T12:38:59.079Z,79.84
2016-12-31T12:40:07.777Z,80.22
2016-12-31T12:41:16.479Z,80.03
2016-12-31T12:42:25.182Z,79.74
2016-12-31T12:43:33.888Z,79.65
2016-12-31T12:44:42.587Z,79.74
2016-12-31T12:45:51.293Z,79.84
2016-12-31T12:46:59.994Z,79.27
2016-12-31T12:48:09.091Z,79.74
2016-12-31T12:49:17.788Z,78.99
2016-12-31T12:50:26.491Z,78.23
2016-12-31T12:51:35.192Z,78.23
2016-12-31T12:52:43.896Z,78.61
2016-12-31T12:53:52.596Z,78.42
2016-12-31T12:55:01.295Z,78.8
2016-12-31T12:56:10.003Z,78.51
2016-12-31T12:57:18.709Z,78.23
2016-12-31T12:58:27.407Z,78.23
2016-12-31T12:59:36.108Z,78.51
2016-12-31T13:00:44.809Z,78.42
2016-12-31T13:01:53.508Z,78.32
2016-12-31T13:03:02.206Z,78.42
2016-12-31T13:04:10.908Z,78.61
2016-12-31T13:05:19.606Z,78.8
2016-12-31T13:06:28.304Z,78.42
2016-12-31T13:07:37.005Z,78.89
2016-12-31T13:08:45.714Z,78.42
2016-12-31T13:09:54.417Z,78.89
2016-12-31T13:11:03.115Z,78.13
2016-12-31T13:12:11.815Z,77.94
2016-12-31T13:13:20.519Z,78.03
2016-12-31T13:14:29.222Z,77.75
2016-12-31T13:15:37.926Z,77.37
2016-12-31T13:16:46.624Z,77.47
2016-12-31T13:17:55.329Z,77.37
2016-12-31T13:19:04.037Z,77.28
2016-12-31T13:20:12.744Z,77.37
2016-12-31T13:21:21.443Z,76.23
2016-12-31T13:22:30.144Z,76.61
2016-12-31T13:23:38.850Z,76.71
2016-12-31T13:24:47.551Z,75.67
2016-12-31T13:25:56.275Z,76.23
2016-12-31T13:27:04.976Z,75.85
2016-12-31T13:28:13.676Z,75.38
2016-12-31T13:29:22.374Z,75.76
2016-12-31T13:30:31.071Z,75.57
2016-12-31T13:31:39.777Z,74.81
2016-12-31T13:32:48.473Z,74.81
2016-12-31T13:33:57.174Z,74.33
2016-12-31T13:35:05.873Z,74.33
2016-12-31T13:36:14.604Z,74.52
2016-12-31T13:37:23.302Z,73.96
2016-12-31T13:38:32.010Z,74.33
2016-12-31T13:39:40.711Z,74.24
2016-12-31T13:40:49.439Z,74.15
2016-12-31T13:41:58.143Z,74.33
2016-12-31T13:43:06.843Z,74.05
2016-12-31T13:44:15.545Z,73.48
2016-12-31T13:45:24.597Z,73.57
2016-12-31T13:46:33.295Z,73.38
2016-12-31T13:47:41.993Z,73.38
2016-12-31T13:48:50.697Z,73.38
2016-12-31T13:49:59.394Z,72.91
2016-12-31T13:51:08.094Z,73.19
2016-12-31T13:52:16.798Z,72.25
2016-12-31T13:53:25.496Z,72.44
2016-12-31T13:54:34.198Z,72.53
2016-12-31T13:55:42.900Z,72.63
2016-12-31T13:56:51.665Z,72.34
2016-12-31T13:58:00.364Z,73.29
2016-12-31T13:59:09.067Z,72.63
2016-12-31T14:00:17.765Z,73.38
2016-12-31T14:01:26.464Z,72.34
2016-12-31T14:02:35.167Z,72.53
2016-12-31T14:03:43.865Z,73.19
2016-12-31T14:04:52.572Z,73
2016-12-31T14:06:01.272Z,72.91
2016-12-31T14:07:09.976Z,73.57
2016-12-31T14:08:18.684Z,73.67
2016-12-31T14:09:27.380Z,73.48
2016-12-31T14:10:36.085Z,73.86
2016-12-31T14:11:44.783Z,73.96
2016-12-31T14:12:53.485Z,74.43
2016-12-31T14:14:02.182Z,74.05
2016-12-31T14:15:10.881Z,74.33
2016-12-31T14:16:19.584Z,74.71
2016-12-31T14:17:28.282Z,74.58
2016-12-31T14:18:36.987Z,74.87
2016-12-31T14:19:45.687Z,75.15
2016-12-31T14:20:54.385Z,75.43
2016-12-31T14:22:03.082Z,75.24
2016-12-31T14:23:11.789Z,76.01
2016-12-31T14:24:20.489Z,76.1
2016-12-31T14:25:29.585Z,75.91
2016-12-31T14:26:38.284Z,76.01
2016-12-31T14:27:46.990Z,76.1
2016-12-31T14:28:55.686Z,76.67
2016-12-31T14:30:04.417Z,76.48
2016-12-31T14:31:13.115Z,76.76
2016-12-31T14:32:21.843Z,76.48
2016-12-31T14:33:30.539Z,77.14
2016-12-31T14:34:39.237Z,77.33
2016-12-31T14:35:47.934Z,77.71
2016-12-31T14:36:56.634Z,77.43
2016-12-31T14:38:05.333Z,77.52
2016-12-31T14:39:14.029Z,77.86
2016-12-31T14:40:22.725Z,77.39
2016-12-31T14:41:31.426Z,77.52
2016-12-31T14:42:40.124Z,77.67
2016-12-31T14:43:48.826Z,77.86
2016-12-31T14:44:57.531Z,78.34
2016-12-31T14:46:06.629Z,77.77
2016-12-31T14:47:15.325Z,78.43
2016-12-31T14:48:24.060Z,78.34